Time;durP1;ratioP1;P1;durP2;ratioP2;P2;SDS_P1;SDS_P2;PMS_P1;PMS_P2;Temp;Humidity;BMP_temperature;BMP_pressure;BME280_temperature;BME280_humidity;BME280_pressure;Samples;Min_cycle;Max_cycle;Signal;HPM_P1;HPM_P2
2022/06/09 00:00:22;;;;;;;;;;;;;;;;;;5042967;28;882;-58
2022/06/09 00:02:48;;;;;;;;;;;;;;;;;;5042998;28;958;-59
2022/06/09 00:05:14;;;;;;;;;;;;;;;;;;5042848;28;1953;-59
2022/06/09 00:07:40;;;;;;;;;;;;;;;;;;5042024;28;1136;-59
2022/06/09 00:10:10;;;;;;;;;;;;;;;;;;5042730;28;917;-59
2022/06/09 00:12:39;;;;;;;;;;;;;;;;;;5042776;28;972;-59
2022/06/09 00:15:06;;;;;;;;;;;;;;;;;;5042661;28;823;-59
2022/06/09 00:17:31;;;;;;;;;;;;;;;;;;5042309;28;1240;-59
2022/06/09 00:19:56;;;;;;;;;;;;;;;;;;5042077;28;1164;-59
2022/06/09 00:22:22;;;;;;;;;;;;;;;;;;5042518;28;827;-59
2022/06/09 00:24:47;;;;;;;;;;;;;;;;;;5042413;28;1970;-59
2022/06/09 00:27:12;;;;;;;;;;;;;;;;;;5042755;28;807;-58
2022/06/09 00:29:38;;;;;;;;;;;;;;;;;;5041589;28;1279;-59
2022/06/09 00:32:04;;;;;;;;;;;;;;;;;;5042484;28;877;-59
2022/06/09 00:34:29;;;;;;;;;;;;;;;;;;5042330;28;874;-59
2022/06/09 00:36:57;;;;;;;;;;;;;;;;;;5042275;28;803;-59
2022/06/09 00:39:26;;;;;;;;;;;;;;;;;;5041454;28;1206;-59
2022/06/09 00:41:51;;;;;;;;;;;;;;;;;;5042561;28;779;-59
2022/06/09 00:44:21;;;;;;;;;;;;;;;;;;5042217;28;1124;-59
2022/06/09 00:46:54;;;;;;;;;;;;;;;;;;5042116;28;1897;-59
2022/06/09 00:49:29;;;;;;;;;;;;;;;;;;5041448;28;1307;-59
2022/06/09 00:51:59;;;;;;;;;;;;;;;;;;5042287;28;898;-59
2022/06/09 00:54:28;;;;;;;;;;;;;;;;;;5024373;28;879;-59
2022/06/09 00:57:20;;;;;;;;;;;;;;;;;;5042111;28;799;-59
2022/06/09 00:59:48;;;;;;;;;;;;;;;;;;5038166;28;1183;-59
2022/06/09 01:02:19;;;;;;;;;;;;;;;;;;5041963;28;866;-59
2022/06/09 01:04:47;;;;;;;;;;;;;;;;;;5041868;28;1902;-59
2022/06/09 01:07:14;;;;;;;;;;;;;;;;;;5041574;28;894;-57
2022/06/09 01:09:39;;;;;;;;;;;;;;;;;;5040682;28;1172;-59
2022/06/09 01:12:21;;;;;;;;;;;;;;;;;;5041720;28;1134;-59
2022/06/09 01:14:46;;;;;;;;;;;;;;;;;;5041814;28;787;-59
2022/06/09 01:17:35;;;;;;;;;;;;;;;;;;5041787;28;862;-59
2022/06/09 01:20:19;;;;;;;;;;;;;;;;;;5033180;28;1274;-59
2022/06/09 01:22:56;;;;;;;;;;;;;;;;;;5041776;28;1001;-59
2022/06/09 01:25:40;;;;;;;;;;;;;;;;;;5041556;28;1894;-59
2022/06/09 01:28:25;;;;;;;;;;;;;;;;;;5040805;28;1196;-59
2022/06/09 01:31:12;;;;;;;;;;;;;;;;;;5041536;28;1009;-59
2022/06/09 01:33:44;;;;;;;;;;;;;;;;;;5041404;28;1239;-59
2022/06/09 01:36:13;;;;;;;;;;;;;;;;;;5041597;28;819;-59
2022/06/09 01:38:51;;;;;;;;;;;;;;;;;;5040576;28;1184;-59
2022/06/09 01:41:16;;;;;;;;;;;;;;;;;;5041426;28;804;-59
2022/06/09 01:43:44;;;;;;;;;;;;;;;;;;5041307;28;842;-59
2022/06/09 01:46:28;;;;;;;;;;;;;;;;;;5041306;28;1902;-59
2022/06/09 01:48:55;;;;;;;;;;;;;;;;;;5040351;28;1271;-59
2022/06/09 01:51:22;;;;;;;;;;;;;;;;;;5041362;28;898;-59
2022/06/09 01:54:01;;;;;;;;;;;;;;;;;;5041119;28;800;-59
2022/06/09 01:56:32;;;;;;;;;;;;;;;;;;5041551;28;835;-59
2022/06/09 01:59:00;;;;;;;;;;;;;;;;;;5040271;28;1184;-59
2022/06/09 02:01:38;;;;;;;;;;;;;;;;;;5041216;28;810;-59
2022/06/09 02:04:08;;;;;;;;;;;;;;;;;;5041123;28;815;-59
2022/06/09 02:06:34;;;;;;;;;;;;;;;;;;5040907;28;1969;-59
2022/06/09 02:09:00;;;;;;;;;;;;;;;;;;5040142;28;1310;-59
2022/06/09 02:11:30;;;;;;;;;;;;;;;;;;5041017;28;842;-59
2022/06/09 02:14:02;;;;;;;;;;;;;;;;;;5040929;28;834;-58
2022/06/09 02:16:28;;;;;;;;;;;;;;;;;;5041333;28;846;-59
2022/06/09 02:18:56;;;;;;;;;;;;;;;;;;5042867;28;1184;-59
2022/06/09 02:21:21;;;;;;;;;;;;;;;;;;5044473;28;823;-59
2022/06/09 02:23:47;;;;;;;;;;;;;;;;;;5044398;28;835;-59
2022/06/09 02:26:13;;;;;;;;;;;;;;;;;;5044330;28;1897;-59
2022/06/09 02:28:41;;;;;;;;;;;;;;;;;;5043733;28;1168;-59
2022/06/09 02:31:07;;;;;;;;;;;;;;;;;;5044274;28;842;-59
2022/06/09 02:33:32;;;;;;;;;;;;;;;;;;5044053;28;1102;-59
2022/06/09 02:36:00;;;;;;;;;;;;;;;;;;5044139;28;902;-59
2022/06/09 02:38:29;;;;;;;;;;;;;;;;;;5043521;28;1206;-59
2022/06/09 02:40:54;;;;;;;;;;;;;;;;;;5042963;28;1141;-59
2022/06/09 02:43:20;;;;;;;;;;;;;;;;;;5044121;28;883;-59
2022/06/09 02:45:46;;;;;;;;;;;;;;;;;;5043930;28;1887;-59
2022/06/09 02:48:12;;;;;;;;;;;;;;;;;;5043441;28;1196;-59
2022/06/09 02:50:40;;;;;;;;;;;;;;;;;;5056179;28;1128;-59
2022/06/09 02:53:06;;;;;;;;;;;;;;;;;;5064033;28;910;-59
2022/06/09 02:55:32;;;;;;;;;;;;;;;;;;5064022;28;854;-59
2022/06/09 02:57:58;;;;;;;;;;;;;;;;;;5063085;28;1264;-59
2022/06/09 03:00:23;;;;;;;;;;;;;;;;;;5063795;28;814;-59
2022/06/09 03:03:17;;;;;;;;;;;;;;;;;;5063689;28;996;-59
2022/06/09 03:05:42;;;;;;;;;;;;;;;;;;5060843;28;1956;-59
2022/06/09 03:08:08;;;;;;;;;;;;;;;;;;5063115;28;1294;-59
2022/06/09 03:10:34;;;;;;;;;;;;;;;;;;5045728;28;1211;-59
2022/06/09 03:13:00;;;;;;;;;;;;;;;;;;5063523;28;863;-59
2022/06/09 03:15:26;;;;;;;;;;;;;;;;;;5063703;28;827;-58
2022/06/09 03:17:52;;;;;;;;;;;;;;;;;;5062809;28;1188;-59
2022/06/09 03:20:23;;;;;;;;;;;;;;;;;;5063478;28;830;-59
2022/06/09 03:22:48;;;;;;;;;;;;;;;;;;5063425;28;1131;-59
2022/06/09 03:25:14;;;;;;;;;;;;;;;;;;5063355;28;1898;-59
2022/06/09 03:27:42;;;;;;;;;;;;;;;;;;5062509;28;1144;-59
2022/06/09 03:30:07;;;;;;;;;;;;;;;;;;5063264;28;953;-59
2022/06/09 03:32:33;;;;;;;;;;;;;;;;;;5063209;28;1052;-58
2022/06/09 03:34:58;;;;;;;;;;;;;;;;;;5045159;28;1403;-58
2022/06/09 03:37:28;;;;;;;;;;;;;;;;;;5063026;28;1184;-59
2022/06/09 03:39:53;;;;;;;;;;;;;;;;;;5062438;28;1298;-58
2022/06/09 03:42:18;;;;;;;;;;;;;;;;;;5063119;28;822;-58
2022/06/09 03:44:44;;;;;;;;;;;;;;;;;;5063205;28;846;-59
2022/06/09 03:47:12;;;;;;;;;;;;;;;;;;5063069;28;1914;-59
2022/06/09 03:49:38;;;;;;;;;;;;;;;;;;5062183;28;1168;-59
2022/06/09 03:52:03;;;;;;;;;;;;;;;;;;5063110;28;886;-59
2022/06/09 03:54:29;;;;;;;;;;;;;;;;;;5045100;28;1347;-59
2022/06/09 03:56:57;;;;;;;;;;;;;;;;;;5062965;28;1057;-58
2022/06/09 03:59:25;;;;;;;;;;;;;;;;;;5044227;28;1208;-58
2022/06/09 04:01:51;;;;;;;;;;;;;;;;;;5062812;28;826;-59
2022/06/09 04:04:16;;;;;;;;;;;;;;;;;;5044985;28;1219;-58
2022/06/09 04:06:41;;;;;;;;;;;;;;;;;;5062815;28;1893;-58
2022/06/09 04:09:07;;;;;;;;;;;;;;;;;;5044219;28;1335;-59
2022/06/09 04:11:32;;;;;;;;;;;;;;;;;;5062530;28;979;-58
2022/06/09 04:13:58;;;;;;;;;;;;;;;;;;5062637;28;1009;-58
2022/06/09 04:16:28;;;;;;;;;;;;;;;;;;5062703;28;969;-58
2022/06/09 04:18:54;;;;;;;;;;;;;;;;;;5061992;28;1196;-59
2022/06/09 04:21:20;;;;;;;;;;;;;;;;;;5062484;28;894;-59
2022/06/09 04:23:51;;;;;;;;;;;;;;;;;;5062639;28;973;-59
2022/06/09 04:26:20;;;;;;;;;;;;;;;;;;5062420;28;1953;-59
2022/06/09 04:28:48;;;;;;;;;;;;;;;;;;5062120;28;1188;-59
2022/06/09 04:31:14;;;;;;;;;;;;;;;;;;5062350;28;862;-59
2022/06/09 04:33:39;;;;;;;;;;;;;;;;;;5044653;28;913;-59
2022/06/09 04:36:05;;;;;;;;;;;;;;;;;;5062358;28;992;-59
2022/06/09 04:38:31;;;;;;;;;;;;;;;;;;5061491;28;1286;-59
2022/06/09 04:40:56;;;;;;;;;;;;;;;;;;5061470;28;866;-59
2022/06/09 04:43:24;;;;;;;;;;;;;;;;;;5062497;28;910;-59
2022/06/09 04:45:53;;;;;;;;;;;;;;;;;;5062022;28;1905;-59
2022/06/09 04:48:18;;;;;;;;;;;;;;;;;;5061560;28;1212;-59
2022/06/09 04:50:44;;;;;;;;;;;;;;;;;;5061527;28;826;-59
2022/06/09 04:53:09;;;;;;;;;;;;;;;;;;5061589;28;826;-59
2022/06/09 04:55:38;;;;;;;;;;;;;;;;;;5044254;28;847;-59
2022/06/09 04:58:06;;;;;;;;;;;;;;;;;;5061124;28;2129;-59
2022/06/09 05:00:31;;;;;;;;;;;;;;;;;;5061920;28;870;-59
2022/06/09 05:02:57;;;;;;;;;;;;;;;;;;5062212;28;1103;-59
2022/06/09 05:05:25;;;;;;;;;;;;;;;;;;5061832;28;1890;-59
2022/06/09 05:07:51;;;;;;;;;;;;;;;;;;5061115;28;1274;-58
2022/06/09 05:10:19;;;;;;;;;;;;;;;;;;5061869;28;830;-59
2022/06/09 05:12:45;;;;;;;;;;;;;;;;;;5061598;28;1047;-59
2022/06/09 05:15:17;;;;;;;;;;;;;;;;;;5061758;28;917;-59
2022/06/09 05:17:42;;;;;;;;;;;;;;;;;;5060992;28;1291;-59
2022/06/09 05:20:09;;;;;;;;;;;;;;;;;;5061618;28;819;-59
2022/06/09 05:22:35;;;;;;;;;;;;;;;;;;5061390;28;881;-59
2022/06/09 05:25:00;;;;;;;;;;;;;;;;;;5061669;28;1941;-59
2022/06/09 05:27:26;;;;;;;;;;;;;;;;;;5061650;28;874;-59
2022/06/09 05:29:54;;;;;;;;;;;;;;;;;;5060848;28;1168;-59
2022/06/09 05:32:19;;;;;;;;;;;;;;;;;;5061271;28;854;-59
2022/06/09 05:34:44;;;;;;;;;;;;;;;;;;5061283;28;807;-59
2022/06/09 05:37:10;;;;;;;;;;;;;;;;;;5061525;28;997;-59
2022/06/09 05:45:04;;;;;;;;;;;;;;;;;;5061239;28;1893;-58
2022/06/09 05:47:30;;;;;;;;;;;;;;;;;;5060957;28;826;-57
2022/06/09 05:49:55;;;;;;;;;;;;;;;;;;5061008;28;1168;-58
2022/06/09 05:52:25;;;;;;;;;;;;;;;;;;5059730;28;866;-59
2022/06/09 05:54:51;;;;;;;;;;;;;;;;;;5061172;28;861;-58
2022/06/09 05:57:17;;;;;;;;;;;;;;;;;;5061059;28;1005;-59
2022/06/09 05:59:42;;;;;;;;;;;;;;;;;;5060276;28;1172;-59
2022/06/09 06:02:08;;;;;;;;;;;;;;;;;;5061042;28;894;-59
2022/06/09 06:04:33;;;;;;;;;;;;;;;;;;5061070;28;803;-59
2022/06/09 06:06:59;;;;;;;;;;;;;;;;;;5042984;28;2004;-59
2022/06/09 06:09:30;;;;;;;;;;;;;;;;;;5059819;28;1180;-59
2022/06/09 06:11:56;;;;;;;;;;;;;;;;;;5060996;28;811;-58
2022/06/09 06:14:23;;;;;;;;;;;;;;;;;;5060928;28;914;-59
2022/06/09 06:16:48;;;;;;;;;;;;;;;;;;5060935;28;1025;-59
2022/06/09 06:19:16;;;;;;;;;;;;;;;;;;5060344;28;1192;-59
2022/06/09 06:21:42;;;;;;;;;;;;;;;;;;5060798;28;849;-59
2022/06/09 06:24:08;;;;;;;;;;;;;;;;;;5042987;28;887;-59
2022/06/09 06:26:33;;;;;;;;;;;;;;;;;;5060670;28;1989;-59
2022/06/09 06:28:59;;;;;;;;;;;;;;;;;;5060255;28;1274;-59
2022/06/09 06:31:25;;;;;;;;;;;;;;;;;;5060410;28;834;-59
2022/06/09 06:33:50;;;;;;;;;;;;;;;;;;5060560;28;799;-59
2022/06/09 06:36:15;;;;;;;;;;;;;;;;;;5060310;28;989;-59
2022/06/09 06:38:41;;;;;;;;;;;;;;;;;;5059914;28;1272;-60
2022/06/09 06:41:07;;;;;;;;;;;;;;;;;;5060621;28;851;-60
2022/06/09 06:43:39;;;;;;;;;;;;;;;;;;5060558;28;976;-58
2022/06/09 06:46:04;;;;;;;;;;;;;;;;;;5060469;28;1902;-59
2022/06/09 06:48:38;;;;;;;;;;;;;;;;;;5059814;28;1188;-59
2022/06/09 06:51:05;;;;;;;;;;;;;;;;;;5060480;28;905;-59
2022/06/09 06:53:33;;;;;;;;;;;;;;;;;;5060387;28;1258;-59
2022/06/09 06:55:58;;;;;;;;;;;;;;;;;;5060710;28;842;-59
2022/06/09 06:58:27;;;;;;;;;;;;;;;;;;5059596;28;1286;-59
2022/06/09 07:01:01;;;;;;;;;;;;;;;;;;5060430;28;846;-59
2022/06/09 07:03:29;;;;;;;;;;;;;;;;;;5059751;28;902;-58
2022/06/09 07:05:54;;;;;;;;;;;;;;;;;;5063863;28;1901;-58
2022/06/09 07:08:20;;;;;;;;;;;;;;;;;;5063003;28;1192;-59
2022/06/09 07:10:45;;;;;;;;;;;;;;;;;;5063727;28;990;-59
2022/06/09 07:13:11;;;;;;;;;;;;;;;;;;5063452;28;1231;-59
2022/06/09 07:15:37;;;;;;;;;;;;;;;;;;5063756;28;827;-59
2022/06/09 07:18:02;;;;;;;;;;;;;;;;;;5062850;28;1290;-59
2022/06/09 07:20:27;;;;;;;;;;;;;;;;;;5063608;28;823;-59
2022/06/09 07:22:53;;;;;;;;;;;;;;;;;;5063368;28;1246;-59
2022/06/09 07:25:19;;;;;;;;;;;;;;;;;;5063471;28;1886;-59
2022/06/09 07:27:45;;;;;;;;;;;;;;;;;;5062806;28;1188;-59
2022/06/09 07:30:10;;;;;;;;;;;;;;;;;;5063558;28;1008;-59
2022/06/09 07:32:36;;;;;;;;;;;;;;;;;;5045298;28;1338;-59
2022/06/09 07:35:01;;;;;;;;;;;;;;;;;;5063409;28;806;-59
2022/06/09 07:37:26;;;;;;;;;;;;;;;;;;5045240;28;1342;-58
2022/06/09 07:39:52;;;;;;;;;;;;;;;;;;5062586;28;1191;-58
2022/06/09 07:42:17;;;;;;;;;;;;;;;;;;5063266;28;949;-59
2022/06/09 07:44:43;;;;;;;;;;;;;;;;;;5063273;28;886;-59
2022/06/09 07:47:08;;;;;;;;;;;;;;;;;;5063214;28;1895;-59
2022/06/09 07:49:33;;;;;;;;;;;;;;;;;;5062419;28;1181;-59
2022/06/09 07:51:59;;;;;;;;;;;;;;;;;;5063080;28;828;-59
2022/06/09 07:54:24;;;;;;;;;;;;;;;;;;5063021;28;1004;-59
2022/06/09 07:56:49;;;;;;;;;;;;;;;;;;5062996;28;850;-58
2022/06/09 07:59:14;;;;;;;;;;;;;;;;;;5062236;28;1309;-58
2022/06/09 08:01:39;;;;;;;;;;;;;;;;;;5063012;28;858;-60
2022/06/09 08:04:05;;;;;;;;;;;;;;;;;;5062795;28;882;-60
2022/06/09 08:06:30;;;;;;;;;;;;;;;;;;5062830;28;1957;-60
2022/06/09 08:08:56;;;;;;;;;;;;;;;;;;5062068;28;1176;-59
2022/06/09 08:11:22;;;;;;;;;;;;;;;;;;5062908;28;810;-59
2022/06/09 08:13:47;;;;;;;;;;;;;;;;;;5062760;28;830;-59
2022/06/09 08:16:12;;;;;;;;;;;;;;;;;;5061731;28;1156;-58
2022/06/09 08:18:37;;;;;;;;;;;;;;;;;;5062196;28;1206;-59
2022/06/09 08:21:03;;;;;;;;;;;;;;;;;;5062585;28;893;-59
2022/06/09 08:23:28;;;;;;;;;;;;;;;;;;5062444;28;910;-59
2022/06/09 08:25:55;;;;;;;;;;;;;;;;;;5062519;28;1967;-59
2022/06/09 08:28:20;;;;;;;;;;;;;;;;;;5061802;28;1259;-59
2022/06/09 08:30:47;;;;;;;;;;;;;;;;;;5062599;28;914;-59
2022/06/09 08:33:13;;;;;;;;;;;;;;;;;;5062105;28;939;-59
2022/06/09 08:35:38;;;;;;;;;;;;;;;;;;5062480;28;993;-59
2022/06/09 08:38:05;;;;;;;;;;;;;;;;;;5061646;28;1196;-59
2022/06/09 08:40:37;;;;;;;;;;;;;;;;;;5062446;28;815;-59
2022/06/09 08:43:21;;;;;;;;;;;;;;;;;;5062250;28;898;-59
2022/06/09 08:45:47;;;;;;;;;;;;;;;;;;5062281;28;1901;-58
2022/06/09 08:48:18;;;;;;;;;;;;;;;;;;5061336;28;1270;-59
2022/06/09 08:50:58;;;;;;;;;;;;;;;;;;5062301;28;934;-58
2022/06/09 08:53:37;;;;;;;;;;;;;;;;;;5062046;28;886;-58
2022/06/09 08:56:11;;;;;;;;;;;;;;;;;;5062260;28;830;-58
2022/06/09 08:58:47;;;;;;;;;;;;;;;;;;5061366;28;1211;-58
2022/06/09 09:01:29;;;;;;;;;;;;;;;;;;5062066;28;913;-58
2022/06/09 09:04:01;;;;;;;;;;;;;;;;;;5062100;28;851;-58
2022/06/09 09:06:29;;;;;;;;;;;;;;;;;;5061972;28;1955;-59
2022/06/09 09:08:58;;;;;;;;;;;;;;;;;;5061106;28;1267;-59
2022/06/09 09:11:29;;;;;;;;;;;;;;;;;;5061894;28;1001;-59
2022/06/09 09:13:59;;;;;;;;;;;;;;;;;;5060588;28;889;-59
2022/06/09 09:16:37;;;;;;;;;;;;;;;;;;5061817;28;885;-59
2022/06/09 09:19:03;;;;;;;;;;;;;;;;;;5043049;28;1363;-59
2022/06/09 09:21:35;;;;;;;;;;;;;;;;;;5061811;28;862;-58
2022/06/09 09:24:17;;;;;;;;;;;;;;;;;;5061460;28;1009;-59
2022/06/09 09:26:48;;;;;;;;;;;;;;;;;;5061504;28;1898;-59
2022/06/09 09:29:18;;;;;;;;;;;;;;;;;;5060934;28;1172;-59
2022/06/09 09:31:52;;;;;;;;;;;;;;;;;;5061577;28;841;-59
2022/06/09 09:34:19;;;;;;;;;;;;;;;;;;5061343;28;893;-59
2022/06/09 09:36:46;;;;;;;;;;;;;;;;;;5043540;28;906;-59
2022/06/09 09:39:14;;;;;;;;;;;;;;;;;;5060675;28;1204;-59
2022/06/09 09:41:40;;;;;;;;;;;;;;;;;;5061608;28;822;-59
2022/06/09 09:44:28;;;;;;;;;;;;;;;;;;5061243;28;890;-59
2022/06/09 09:46:55;;;;;;;;;;;;;;;;;;5047710;28;1914;-58
2022/06/09 09:49:34;;;;;;;;;;;;;;;;;;5060709;28;1212;-58
2022/06/09 09:52:23;;;;;;;;;;;;;;;;;;5061257;28;1005;-59
2022/06/09 09:54:51;;;;;;;;;;;;;;;;;;5061021;28;1162;-59
2022/06/09 09:57:25;;;;;;;;;;;;;;;;;;5061075;28;1052;-58
2022/06/09 09:59:55;;;;;;;;;;;;;;;;;;5060400;28;1271;-58
2022/06/09 10:08:37;;;;;;;;;;;;;;;;;;5060685;28;1248;-59
2022/06/09 10:11:53;;;;;;;;;;;;;;;;;;5061285;28;897;-59
2022/06/09 10:13:49;;;;;;;;;;;;;;;;;;5060690;28;1007;-59
2022/06/09 10:16:15;;;;;;;;;;;;;;;;;;5060835;28;925;-59
2022/06/09 10:18:43;;;;;;;;;;;;;;;;;;5042344;28;1189;-59
2022/06/09 10:21:10;;;;;;;;;;;;;;;;;;5061065;28;822;-59
2022/06/09 10:23:54;;;;;;;;;;;;;;;;;;5061042;28;1002;-59
2022/06/09 10:26:26;;;;;;;;;;;;;;;;;;5060748;28;1964;-59
2022/06/09 10:28:57;;;;;;;;;;;;;;;;;;5060035;28;1203;-59
2022/06/09 10:31:25;;;;;;;;;;;;;;;;;;5060901;28;880;-59
2022/06/09 10:33:53;;;;;;;;;;;;;;;;;;5054469;28;1041;-59
2022/06/09 10:36:48;;;;;;;;;;;;;;;;;;5040890;28;847;-59
2022/06/09 10:39:37;;;;;;;;;;;;;;;;;;4954074;28;1225;-59
2022/06/09 10:42:22;;;;;;;;;;;;;;;;;;4997768;28;1267;-58
2022/06/09 10:45:11;;;;;;;;;;;;;;;;;;5026700;28;1094;-60
2022/06/09 10:56:30;;;;;;;;;;;;;;;;;;5044130;28;680;-59
2022/06/09 10:58:56;;;;;;;;;;;;;;;;;;5043174;28;1294;-58
2022/06/09 11:01:28;;;;;;;;;;;;;;;;;;5044116;28;874;-61
2022/06/09 11:03:53;;;;;;;;;;;;;;;;;;5043766;28;894;-59
2022/06/09 11:06:24;;;;;;;;;;;;;;;;;;5044041;28;1949;-60
2022/06/09 11:08:52;;;;;;;;;;;;;;;;;;5043060;28;1243;-58
2022/06/09 11:11:23;;;;;;;;;;;;;;;;;;5043675;28;891;-59
2022/06/09 11:14:07;;;;;;;;;;;;;;;;;;5043623;28;977;-58
2022/06/09 11:16:43;;;;;;;;;;;;;;;;;;5043593;28;874;-59
2022/06/09 11:19:15;;;;;;;;;;;;;;;;;;5042874;28;1232;-59
2022/06/09 11:21:50;;;;;;;;;;;;;;;;;;5043690;28;886;-59
2022/06/09 11:24:16;;;;;;;;;;;;;;;;;;5042758;28;858;-58
2022/06/09 11:26:54;;;;;;;;;;;;;;;;;;5042992;28;1941;-59
2022/06/09 11:29:28;;;;;;;;;;;;;;;;;;5042603;28;1184;-58
2022/06/09 11:32:15;;;;;;;;;;;;;;;;;;5043276;28;919;-60
2022/06/09 11:34:43;;;;;;;;;;;;;;;;;;5043033;28;878;-61
2022/06/09 11:37:17;;;;;;;;;;;;;;;;;;5043410;28;830;-59
2022/06/09 11:39:48;;;;;;;;;;;;;;;;;;5042524;28;1269;-60
2022/06/09 11:42:22;;;;;;;;;;;;;;;;;;5043505;28;897;-59
2022/06/09 11:44:51;;;;;;;;;;;;;;;;;;5043185;28;957;-59
2022/06/09 11:47:17;;;;;;;;;;;;;;;;;;5025254;28;1894;-59
2022/06/09 11:49:45;;;;;;;;;;;;;;;;;;5041466;28;1198;-59
2022/06/09 11:52:15;;;;;;;;;;;;;;;;;;5042732;28;945;-58
2022/06/09 11:54:55;;;;;;;;;;;;;;;;;;5043135;28;838;-58
2022/06/09 11:57:20;;;;;;;;;;;;;;;;;;5043153;28;906;-59
2022/06/09 11:59:54;;;;;;;;;;;;;;;;;;5042106;28;1145;-58
2022/06/09 12:02:38;;;;;;;;;;;;;;;;;;5043107;28;808;-59
2022/06/09 12:05:16;;;;;;;;;;;;;;;;;;5025037;28;847;-59
2022/06/09 12:07:53;;;;;;;;;;;;;;;;;;5042272;28;1186;-59
2022/06/09 12:10:21;;;;;;;;;;;;;;;;;;5042993;28;934;-59
2022/06/09 12:13:04;;;;;;;;;;;;;;;;;;5042773;28;1052;-59
2022/06/09 12:15:31;;;;;;;;;;;;;;;;;;5042577;28;945;-59
2022/06/09 12:17:56;;;;;;;;;;;;;;;;;;5042150;28;1255;-58
2022/06/09 12:20:41;;;;;;;;;;;;;;;;;;5042760;28;870;-59
2022/06/09 12:23:25;;;;;;;;;;;;;;;;;;5042617;28;914;-59
2022/06/09 12:26:08;;;;;;;;;;;;;;;;;;5042572;28;1952;-59
2022/06/09 12:28:56;;;;;;;;;;;;;;;;;;5041738;28;1192;-59
2022/06/09 12:31:35;;;;;;;;;;;;;;;;;;5042343;28;959;-59
2022/06/09 12:34:00;;;;;;;;;;;;;;;;;;5042552;28;918;-59
2022/06/09 12:36:49;;;;;;;;;;;;;;;;;;5042480;28;823;-59
2022/06/09 12:39:23;;;;;;;;;;;;;;;;;;5041646;28;1211;-59
2022/06/09 12:41:50;;;;;;;;;;;;;;;;;;5042413;28;917;-59
2022/06/09 12:44:27;;;;;;;;;;;;;;;;;;5042171;28;823;-59
2022/06/09 12:47:18;;;;;;;;;;;;;;;;;;5042360;28;1894;-59
2022/06/09 12:49:45;;;;;;;;;;;;;;;;;;5036636;28;1206;-59
2022/06/09 12:52:28;;;;;;;;;;;;;;;;;;5042146;28;1115;-58
2022/06/09 12:54:55;;;;;;;;;;;;;;;;;;5041934;28;1214;-59
2022/06/09 12:57:23;;;;;;;;;;;;;;;;;;5042087;28;949;-58
2022/06/09 12:59:59;;;;;;;;;;;;;;;;;;5041380;28;1180;-58
2022/06/09 13:02:29;;;;;;;;;;;;;;;;;;5041627;28;878;-58
2022/06/09 13:04:56;;;;;;;;;;;;;;;;;;5042074;28;870;-59
2022/06/09 13:07:23;;;;;;;;;;;;;;;;;;5041987;28;1894;-59
2022/06/09 13:10:18;;;;;;;;;;;;;;;;;;5041173;28;1191;-59
2022/06/09 13:12:52;;;;;;;;;;;;;;;;;;5020393;28;1519;-58
2022/06/09 13:15:37;;;;;;;;;;;;;;;;;;5041995;28;728;-58
2022/06/09 13:18:05;;;;;;;;;;;;;;;;;;5041228;28;1176;-59
2022/06/09 13:20:30;;;;;;;;;;;;;;;;;;5041783;28;1121;-59
2022/06/09 13:22:55;;;;;;;;;;;;;;;;;;5041858;28;803;-59
2022/06/09 13:25:22;;;;;;;;;;;;;;;;;;5041456;28;1957;-58
2022/06/09 13:27:48;;;;;;;;;;;;;;;;;;5040877;28;1172;-58
2022/06/09 13:30:19;;;;;;;;;;;;;;;;;;5041604;28;850;-58
2022/06/09 13:32:49;;;;;;;;;;;;;;;;;;5041660;28;951;-58
2022/06/09 13:35:33;;;;;;;;;;;;;;;;;;5041476;28;872;-58
2022/06/09 13:38:20;;;;;;;;;;;;;;;;;;5040787;28;1235;-59
2022/06/09 13:40:48;;;;;;;;;;;;;;;;;;5041388;28;866;-59
2022/06/09 13:43:16;;;;;;;;;;;;;;;;;;5041541;28;864;-59
2022/06/09 13:45:48;;;;;;;;;;;;;;;;;;5041261;28;1971;-59
2022/06/09 13:48:18;;;;;;;;;;;;;;;;;;5040703;28;1232;-59
2022/06/09 13:50:46;;;;;;;;;;;;;;;;;;5041113;28;1720;-59
2022/06/09 13:53:20;;;;;;;;;;;;;;;;;;5041335;28;806;-59
2022/06/09 13:55:45;;;;;;;;;;;;;;;;;;5041095;28;1049;-59
2022/06/09 13:58:11;;;;;;;;;;;;;;;;;;5040497;28;1271;-59
2022/06/09 14:01:09;;;;;;;;;;;;;;;;;;5023499;28;880;-58
2022/06/09 14:03:38;;;;;;;;;;;;;;;;;;4970559;28;1335;-59
2022/06/09 14:06:10;;;;;;;;;;;;;;;;;;5041061;28;1973;-58
2022/06/09 14:08:37;;;;;;;;;;;;;;;;;;5040515;28;1192;-58
2022/06/09 14:11:04;;;;;;;;;;;;;;;;;;5041082;28;905;-58
2022/06/09 14:13:29;;;;;;;;;;;;;;;;;;5039875;28;870;-58
2022/06/09 14:15:54;;;;;;;;;;;;;;;;;;5041021;28;941;-58
2022/06/09 14:18:21;;;;;;;;;;;;;;;;;;5040254;28;1176;-58
2022/06/09 14:20:46;;;;;;;;;;;;;;;;;;5040982;28;925;-59
2022/06/09 14:23:17;;;;;;;;;;;;;;;;;;5040879;28;1648;-59
2022/06/09 14:25:42;;;;;;;;;;;;;;;;;;5040714;28;1957;-59
2022/06/09 14:28:10;;;;;;;;;;;;;;;;;;5040057;28;1203;-59
2022/06/09 14:30:35;;;;;;;;;;;;;;;;;;5040893;28;823;-59
2022/06/09 14:33:01;;;;;;;;;;;;;;;;;;5040675;28;991;-59
2022/06/09 14:35:26;;;;;;;;;;;;;;;;;;5043331;28;1085;-59
2022/06/09 14:37:51;;;;;;;;;;;;;;;;;;5059786;28;1194;-58
2022/06/09 14:40:28;;;;;;;;;;;;;;;;;;5060669;28;819;-58
2022/06/09 14:42:54;;;;;;;;;;;;;;;;;;5060561;28;819;-59
2022/06/09 14:45:20;;;;;;;;;;;;;;;;;;5060501;28;1922;-58
2022/06/09 14:47:45;;;;;;;;;;;;;;;;;;5041998;28;1211;-58
2022/06/09 14:50:14;;;;;;;;;;;;;;;;;;5060465;28;1209;-60
2022/06/09 14:52:42;;;;;;;;;;;;;;;;;;5042873;28;863;-59
2022/06/09 14:55:09;;;;;;;;;;;;;;;;;;5060363;28;886;-59
2022/06/09 14:57:34;;;;;;;;;;;;;;;;;;5059998;28;873;-59
2022/06/09 15:00:03;;;;;;;;;;;;;;;;;;5060062;28;1215;-59
2022/06/09 15:02:28;;;;;;;;;;;;;;;;;;5060458;28;906;-59
2022/06/09 15:04:53;;;;;;;;;;;;;;;;;;5060345;28;806;-59
2022/06/09 15:07:19;;;;;;;;;;;;;;;;;;5060367;28;1890;-59
2022/06/09 15:09:46;;;;;;;;;;;;;;;;;;5059391;28;1195;-59
2022/06/09 15:12:12;;;;;;;;;;;;;;;;;;5060348;28;822;-59
2022/06/09 15:14:37;;;;;;;;;;;;;;;;;;5060250;28;1199;-59
2022/06/09 15:17:02;;;;;;;;;;;;;;;;;;5060125;28;795;-59
2022/06/09 15:19:28;;;;;;;;;;;;;;;;;;5059435;28;1220;-58
2022/06/09 15:21:53;;;;;;;;;;;;;;;;;;5060349;28;850;-58
2022/06/09 15:24:20;;;;;;;;;;;;;;;;;;5060415;28;866;-59
2022/06/09 15:26:46;;;;;;;;;;;;;;;;;;5063531;28;1937;-58
2022/06/09 15:29:12;;;;;;;;;;;;;;;;;;5062783;28;1317;-58
2022/06/09 15:31:38;;;;;;;;;;;;;;;;;;5063372;28;814;-59
2022/06/09 15:34:03;;;;;;;;;;;;;;;;;;5063560;28;899;-59
2022/06/09 15:36:29;;;;;;;;;;;;;;;;;;5063364;28;823;-59
2022/06/09 15:38:55;;;;;;;;;;;;;;;;;;5062497;28;1298;-59
2022/06/09 15:41:20;;;;;;;;;;;;;;;;;;5063352;28;795;-59
2022/06/09 15:43:45;;;;;;;;;;;;;;;;;;5063405;28;945;-59
2022/06/09 15:46:11;;;;;;;;;;;;;;;;;;5063114;28;1957;-58
2022/06/09 15:48:36;;;;;;;;;;;;;;;;;;5062586;28;1172;-59
2022/06/09 15:51:02;;;;;;;;;;;;;;;;;;5063094;28;961;-58
2022/06/09 15:53:30;;;;;;;;;;;;;;;;;;5063089;28;1146;-61
2022/06/09 15:56:01;;;;;;;;;;;;;;;;;;5063312;28;752;-59
2022/06/09 15:58:26;;;;;;;;;;;;;;;;;;5062334;28;1258;-59
2022/06/09 16:00:52;;;;;;;;;;;;;;;;;;5063041;28;838;-58
2022/06/09 16:03:18;;;;;;;;;;;;;;;;;;5063038;28;780;-59
2022/06/09 16:05:45;;;;;;;;;;;;;;;;;;5062828;28;1910;-58
2022/06/09 16:08:10;;;;;;;;;;;;;;;;;;5062484;28;1306;-59
2022/06/09 16:10:38;;;;;;;;;;;;;;;;;;5062521;28;811;-58
2022/06/09 16:13:03;;;;;;;;;;;;;;;;;;5044819;28;890;-59
2022/06/09 16:15:29;;;;;;;;;;;;;;;;;;5062836;28;803;-58
2022/06/09 16:17:54;;;;;;;;;;;;;;;;;;5061957;28;1184;-59
2022/06/09 16:20:24;;;;;;;;;;;;;;;;;;5062744;28;783;-59
2022/06/09 16:22:50;;;;;;;;;;;;;;;;;;5062588;28;838;-59
2022/06/09 16:25:15;;;;;;;;;;;;;;;;;;5062734;28;803;-58
2022/06/09 16:27:41;;;;;;;;;;;;;;;;;;5061873;28;1196;-59
2022/06/09 16:30:06;;;;;;;;;;;;;;;;;;5062675;28;969;-59
2022/06/09 16:32:32;;;;;;;;;;;;;;;;;;5062361;28;891;-58
2022/06/09 16:34:57;;;;;;;;;;;;;;;;;;5062596;28;997;-58
2022/06/09 16:37:22;;;;;;;;;;;;;;;;;;5061409;28;915;-59
2022/06/09 16:39:48;;;;;;;;;;;;;;;;;;5061860;28;1285;-59
2022/06/09 16:42:16;;;;;;;;;;;;;;;;;;5062641;28;977;-59
2022/06/09 16:44:42;;;;;;;;;;;;;;;;;;5062264;28;898;-59
2022/06/09 16:47:07;;;;;;;;;;;;;;;;;;5062218;28;1944;-59
2022/06/09 16:49:32;;;;;;;;;;;;;;;;;;5061525;28;1283;-59
2022/06/09 16:51:58;;;;;;;;;;;;;;;;;;5062461;28;771;-60
2022/06/09 16:54:23;;;;;;;;;;;;;;;;;;5062200;28;1114;-60
2022/06/09 16:56:48;;;;;;;;;;;;;;;;;;5062142;28;882;-60
2022/06/09 16:59:14;;;;;;;;;;;;;;;;;;5061385;28;1263;-60
2022/06/09 17:01:39;;;;;;;;;;;;;;;;;;5062161;28;894;-59
2022/06/09 17:04:04;;;;;;;;;;;;;;;;;;5044022;28;1283;-59
2022/06/09 17:06:30;;;;;;;;;;;;;;;;;;5061830;28;1955;-60
2022/06/09 17:08:55;;;;;;;;;;;;;;;;;;5061128;28;1275;-60
2022/06/09 17:11:22;;;;;;;;;;;;;;;;;;5062046;28;874;-59
2022/06/09 17:13:47;;;;;;;;;;;;;;;;;;5061723;28;897;-60
2022/06/09 17:16:13;;;;;;;;;;;;;;;;;;5033512;28;1759;-59
2022/06/09 17:18:42;;;;;;;;;;;;;;;;;;5038507;28;1415;-59
2022/06/09 17:21:08;;;;;;;;;;;;;;;;;;5040854;28;1290;-59
2022/06/09 17:23:34;;;;;;;;;;;;;;;;;;5041883;28;1084;-59
2022/06/09 17:26:00;;;;;;;;;;;;;;;;;;5041101;28;1898;-59
2022/06/09 17:28:25;;;;;;;;;;;;;;;;;;5040960;28;1611;-59
2022/06/09 17:30:50;;;;;;;;;;;;;;;;;;5040382;28;1444;-60
2022/06/09 17:33:15;;;;;;;;;;;;;;;;;;5039583;28;1291;-59
2022/06/09 17:35:43;;;;;;;;;;;;;;;;;;5041533;28;1113;-60
2022/06/09 17:38:08;;;;;;;;;;;;;;;;;;5039572;28;1303;-59
2022/06/09 17:40:34;;;;;;;;;;;;;;;;;;5022986;28;1517;-59
2022/06/09 17:42:59;;;;;;;;;;;;;;;;;;5041056;28;1500;-60